Time;durP1;ratioP1;P1;durP2;ratioP2;P2;SDS_P1;SDS_P2;PMS_P1;PMS_P2;Temp;Humidity;BMP_temperature;BMP_pressure;BME280_temperature;BME280_humidity;BME280_pressure;Samples;Min_cycle;Max_cycle;Signal;HPM_P1;HPM_P2
2022/12/11 00:01:59;;;;;;;58.88;17.08;;;0.40;99.90;;;;;;5043079;28;20032;-58
2022/12/11 00:04:25;;;;;;;56.35;18.58;;;0.40;99.90;;;;;;5074938;28;20039;-60
2022/12/11 00:06:52;;;;;;;45.22;16.27;;;0.40;99.90;;;;;;5073843;28;20045;-60
2022/12/11 00:09:18;;;;;;;43.05;15.88;;;0.40;99.90;;;;;;5057420;28;20046;-60
2022/12/11 00:11:44;;;;;;;48.25;17.15;;;0.30;99.90;;;;;;5075169;28;20512;-58
2022/12/11 00:14:10;;;;;;;52.67;15.88;;;0.30;99.90;;;;;;5057041;28;20120;-58
2022/12/11 00:16:36;;;;;;;51.65;18.65;;;0.30;99.90;;;;;;5074398;28;20055;-62
2022/12/11 00:19:02;;;;;;;50.65;16.73;;;0.30;99.90;;;;;;5057119;28;20346;-63
2022/12/11 00:21:27;;;;;;;45.28;16.52;;;0.30;99.90;;;;;;5074823;28;20094;-58
2022/12/11 00:23:53;;;;;;;47.78;15.75;;;0.30;99.90;;;;;;5056810;28;20052;-55
2022/12/11 00:26:18;;;;;;;47.17;16.20;;;0.30;99.90;;;;;;5056370;28;20148;-58
2022/12/11 00:28:44;;;;;;;50.83;17.20;;;0.40;99.90;;;;;;5074252;28;20048;-60
2022/12/11 00:31:16;;;;;;;46.05;16.90;;;0.30;99.90;;;;;;5073372;28;20036;-59
2022/12/11 00:33:43;;;;;;;51.20;17.50;;;0.30;99.90;;;;;;5056702;28;20412;-64
2022/12/11 00:36:15;;;;;;;56.22;18.40;;;0.40;99.90;;;;;;5056607;28;20028;-57
2022/12/11 00:38:41;;;;;;;44.70;16.67;;;0.40;99.90;;;;;;5074041;28;20036;-59
2022/12/11 00:41:07;;;;;;;58.25;18.73;;;0.30;99.90;;;;;;5074558;28;20036;-61
2022/12/11 00:43:33;;;;;;;55.25;17.08;;;0.30;99.90;;;;;;5074785;28;20058;-60
2022/12/11 00:45:59;;;;;;;59.60;20.20;;;0.30;99.90;;;;;;5074188;28;20440;-60
2022/12/11 00:48:24;;;;;;;55.13;17.95;;;0.30;99.90;;;;;;5073608;28;20041;-58
2022/12/11 00:50:50;;;;;;;45.60;16.40;;;0.40;99.90;;;;;;5086666;28;20032;-59
2022/12/11 00:53:15;;;;;;;49.13;16.85;;;0.30;99.90;;;;;;5084895;28;20416;-59
2022/12/11 00:55:42;;;;;;;53.10;17.60;;;0.30;99.90;;;;;;5074740;28;20476;-62
2022/12/11 00:58:09;;;;;;;58.95;18.60;;;0.30;99.90;;;;;;5084882;28;20052;-61
2022/12/11 01:00:35;;;;;;;51.63;19.08;;;0.40;99.90;;;;;;5066291;28;20044;-59
2022/12/11 01:03:00;;;;;;;55.88;19.05;;;0.30;99.90;;;;;;5076515;28;20324;-58
2022/12/11 01:05:26;;;;;;;53.08;17.67;;;0.30;99.90;;;;;;5073637;28;20090;-58
2022/12/11 01:07:51;;;;;;;58.50;18.20;;;0.40;99.90;;;;;;5073563;28;20044;-58
2022/12/11 01:10:23;;;;;;;57.83;18.75;;;0.40;99.90;;;;;;5073972;28;20036;-58
2022/12/11 01:12:55;;;;;;;60.35;18.40;;;0.30;99.90;;;;;;5074150;28;20055;-59
2022/12/11 01:15:24;;;;;;;50.60;17.13;;;0.40;99.90;;;;;;5074105;28;20044;-59
2022/12/11 01:17:50;;;;;;;56.38;19.60;;;0.40;99.90;;;;;;5073195;28;20059;-60
2022/12/11 01:20:17;;;;;;;58.30;18.60;;;0.30;99.90;;;;;;5055840;28;20067;-59
2022/12/11 01:22:42;;;;;;;57.63;18.65;;;0.40;99.90;;;;;;5073702;28;20105;-59
2022/12/11 01:25:09;;;;;;;66.07;19.77;;;0.40;99.90;;;;;;5073303;28;20040;-60
2022/12/11 01:27:35;;;;;;;50.20;18.83;;;0.40;99.90;;;;;;5073235;28;20044;-59
2022/12/11 01:30:01;;;;;;;63.03;19.00;;;0.50;99.90;;;;;;5073419;28;20036;-58
2022/12/11 01:32:27;;;;;;;64.82;19.80;;;0.50;99.90;;;;;;5073251;28;20033;-58
2022/12/11 01:34:53;;;;;;;52.45;19.00;;;0.50;99.90;;;;;;5073800;28;20033;-60
2022/12/11 01:37:20;;;;;;;60.38;18.83;;;0.60;99.90;;;;;;5054739;28;20119;-58
2022/12/11 01:39:45;;;;;;;61.97;20.08;;;0.50;99.90;;;;;;5055254;28;20037;-60
2022/12/11 01:42:17;;;;;;;61.42;19.27;;;0.50;99.90;;;;;;5055258;28;20051;-59
2022/12/11 01:44:42;;;;;;;62.10;19.63;;;0.40;99.90;;;;;;5041818;28;20071;-58
2022/12/11 01:47:08;;;;;;;56.45;19.10;;;0.50;99.90;;;;;;5072418;28;20045;-59
2022/12/11 01:49:33;;;;;;;56.08;19.88;;;0.50;99.90;;;;;;5073411;28;20517;-59
2022/12/11 01:52:06;;;;;;;59.38;19.17;;;0.60;99.90;;;;;;5055324;28;20104;-60
2022/12/11 01:54:33;;;;;;;59.22;18.75;;;0.60;99.90;;;;;;5073380;28;20060;-58
2022/12/11 01:57:03;;;;;;;59.33;19.40;;;0.50;99.90;;;;;;5072744;28;20059;-59
2022/12/11 01:59:32;;;;;;;59.58;19.50;;;0.60;99.90;;;;;;5055262;28;20048;-59
2022/12/11 02:02:03;;;;;;;54.75;18.38;;;0.60;99.90;;;;;;5073056;28;20075;-61
2022/12/11 02:04:30;;;;;;;61.30;19.58;;;0.50;99.90;;;;;;5073051;28;20112;-59
2022/12/11 02:06:56;;;;;;;61.35;21.20;;;0.60;99.90;;;;;;5054348;28;20425;-59
2022/12/11 02:09:28;;;;;;;54.17;19.73;;;0.60;99.90;;;;;;5072778;28;20190;-59
2022/12/11 02:12:05;;;;;;;61.45;18.88;;;0.60;99.90;;;;;;5054733;28;20048;-60
2022/12/11 02:14:52;;;;;;;62.22;20.02;;;0.70;99.90;;;;;;5073199;28;20116;-59
2022/12/11 02:17:32;;;;;;;58.10;20.02;;;0.60;99.90;;;;;;5054275;28;20079;-59
2022/12/11 02:20:22;;;;;;;63.08;19.42;;;0.60;99.90;;;;;;5055214;28;20052;-58
2022/12/11 02:23:22;;;;;;;55.85;18.40;;;0.70;99.90;;;;;;5061291;28;20036;-59
2022/12/11 02:26:14;;;;;;;56.75;18.95;;;0.60;99.90;;;;;;5045177;28;20470;-59
2022/12/11 02:28:56;;;;;;;65.22;19.02;;;0.60;99.90;;;;;;5030841;28;20049;-59
2022/12/11 02:31:40;;;;;;;67.53;21.33;;;0.60;99.90;;;;;;5031387;28;20045;-59
2022/12/11 02:34:15;;;;;;;61.80;19.02;;;0.60;99.90;;;;;;5032685;28;20034;-61
2022/12/11 02:36:45;;;;;;;59.38;20.38;;;0.60;99.90;;;;;;5014520;28;20049;-61
2022/12/11 02:39:13;;;;;;;56.42;20.17;;;0.70;99.90;;;;;;5031218;28;20056;-59
2022/12/11 02:41:44;;;;;;;57.33;19.25;;;0.80;99.90;;;;;;5032751;28;20520;-58
2022/12/11 02:44:11;;;;;;;60.20;18.70;;;0.70;99.90;;;;;;5031231;28;20049;-61
2022/12/11 02:46:38;;;;;;;65.50;20.15;;;0.80;99.90;;;;;;5031580;28;20037;-59
2022/12/11 02:49:05;;;;;;;53.33;20.00;;;0.70;99.90;;;;;;5032669;28;20453;-59
2022/12/11 02:51:36;;;;;;;59.42;20.67;;;0.80;99.90;;;;;;5031399;28;20045;-59
2022/12/11 02:54:03;;;;;;;68.10;20.20;;;0.80;99.90;;;;;;5032547;28;20116;-60
2022/12/11 02:56:34;;;;;;;51.47;18.45;;;0.70;99.90;;;;;;5030491;28;20400;-59
2022/12/11 02:59:08;;;;;;;56.92;19.90;;;0.70;99.90;;;;;;5032039;28;20041;-59
2022/12/11 03:01:33;;;;;;;57.05;19.00;;;0.70;99.90;;;;;;5031874;28;20045;-59
2022/12/11 03:03:59;;;;;;;61.42;20.02;;;0.70;99.90;;;;;;5031796;28;20041;-59
2022/12/11 03:06:31;;;;;;;56.75;19.63;;;0.80;99.90;;;;;;5030197;28;20121;-56
2022/12/11 03:08:57;;;;;;;55.47;19.55;;;0.80;99.90;;;;;;5018495;28;20122;-58
2022/12/11 03:11:22;;;;;;;55.97;20.05;;;0.80;99.90;;;;;;5030814;28;20057;-59
2022/12/11 03:13:48;;;;;;;56.33;19.23;;;0.80;99.90;;;;;;5031460;28;20072;-59
2022/12/11 03:16:29;;;;;;;53.80;18.40;;;0.80;99.90;;;;;;5013567;28;20029;-60
2022/12/11 03:19:17;;;;;;;56.80;18.75;;;0.90;99.90;;;;;;5030685;28;20041;-59
2022/12/11 03:21:51;;;;;;;53.05;18.02;;;0.90;99.90;;;;;;5030835;28;20114;-61
2022/12/11 03:24:34;;;;;;;55.45;18.48;;;0.90;99.90;;;;;;5032107;28;20109;-57
2022/12/11 03:27:22;;;;;;;51.75;18.00;;;0.90;99.90;;;;;;5061840;28;20065;-59
2022/12/11 03:30:09;;;;;;;52.08;17.58;;;0.80;99.90;;;;;;5070931;28;20071;-59
2022/12/11 03:32:48;;;;;;;55.67;17.92;;;1.00;99.90;;;;;;5071973;28;20064;-61
2022/12/11 03:35:30;;;;;;;50.33;17.65;;;0.90;99.90;;;;;;5071867;28;20052;-61
2022/12/11 03:38:00;;;;;;;49.88;19.33;;;0.90;99.90;;;;;;5071689;28;20123;-61
2022/12/11 03:40:29;;;;;;;50.95;17.02;;;0.90;99.90;;;;;;5075753;28;20109;-61
2022/12/11 03:42:56;;;;;;;48.55;17.73;;;1.00;99.90;;;;;;5061784;28;20152;-61
2022/12/11 03:45:22;;;;;;;54.53;18.85;;;1.00;99.90;;;;;;5075546;28;20100;-60
2022/12/11 03:47:51;;;;;;;50.17;16.88;;;0.90;99.90;;;;;;5075124;28;20063;-60
2022/12/11 03:50:18;;;;;;;45.03;17.35;;;0.90;99.90;;;;;;5075753;28;20051;-59
2022/12/11 03:52:45;;;;;;;43.35;16.10;;;1.00;99.90;;;;;;5075355;28;20143;-62
2022/12/11 03:55:14;;;;;;;49.42;18.00;;;1.10;99.90;;;;;;5075682;28;20048;-61
2022/12/11 03:57:40;;;;;;;50.72;17.05;;;0.90;99.90;;;;;;5074471;28;20041;-62
2022/12/11 04:00:12;;;;;;;49.58;17.73;;;1.00;99.90;;;;;;5075398;28;20051;-62
2022/12/11 04:02:39;;;;;;;51.35;17.83;;;1.00;99.90;;;;;;5075253;28;20129;-61
2022/12/11 04:05:05;;;;;;;45.67;16.85;;;1.00;99.90;;;;;;5075409;28;20037;-62
2022/12/11 04:07:31;;;;;;;49.10;17.08;;;1.10;99.90;;;;;;5074891;28;20036;-62
2022/12/11 04:09:57;;;;;;;43.13;17.20;;;1.10;99.90;;;;;;5075293;28;20044;-60
2022/12/11 04:12:22;;;;;;;42.58;16.92;;;1.00;99.90;;;;;;5075208;28;20033;-62
2022/12/11 04:15:03;;;;;;;48.38;16.90;;;1.00;99.90;;;;;;5075014;28;20071;-61
2022/12/11 04:25:50;;;;;;;46.35;16.08;;;1.00;99.90;;;;;;5073563;28;20484;-62
2022/12/11 04:28:16;;;;;;;47.25;17.05;;;1.10;99.90;;;;;;5074847;28;20076;-61
2022/12/11 04:30:47;;;;;;;51.00;18.38;;;1.10;99.90;;;;;;5057103;28;20075;-60
2022/12/11 04:33:13;;;;;;;56.40;18.15;;;1.20;99.90;;;;;;5074949;28;20471;-61
2022/12/11 04:35:38;;;;;;;47.53;16.63;;;1.00;99.90;;;;;;5026603;28;20049;-62
2022/12/11 04:38:04;;;;;;;49.15;16.85;;;1.10;99.90;;;;;;5073616;28;20318;-60
2022/12/11 04:40:29;;;;;;;51.28;17.67;;;1.10;99.90;;;;;;5073811;28;20059;-57
2022/12/11 04:42:55;;;;;;;46.92;16.90;;;1.10;99.90;;;;;;5074870;28;20040;-59
2022/12/11 04:45:20;;;;;;;54.22;19.05;;;1.10;99.90;;;;;;5073604;28;20055;-61
2022/12/11 04:47:46;;;;;;;45.88;17.38;;;1.10;99.90;;;;;;5056171;28;20201;-61
2022/12/11 04:50:13;;;;;;;46.33;17.58;;;1.10;99.90;;;;;;5074215;28;20043;-61
2022/12/11 04:52:39;;;;;;;49.72;17.17;;;1.00;99.90;;;;;;5056560;28;20040;-61
2022/12/11 04:55:06;;;;;;;42.42;16.33;;;1.00;99.90;;;;;;5073878;28;20123;-61
2022/12/11 04:57:32;;;;;;;44.65;16.17;;;1.10;99.90;;;;;;5074188;28;20051;-61
2022/12/11 04:59:58;;;;;;;48.67;17.50;;;1.20;99.90;;;;;;5056720;28;20037;-59
2022/12/11 05:02:25;;;;;;;53.65;18.45;;;1.10;99.90;;;;;;5074415;28;20125;-60
2022/12/11 05:04:51;;;;;;;46.72;16.50;;;1.00;99.90;;;;;;5040026;28;20487;-60
2022/12/11 05:07:17;;;;;;;46.95;16.90;;;1.00;99.90;;;;;;5055502;28;20419;-61
2022/12/11 05:09:43;;;;;;;47.22;26.80;;;1.10;99.90;;;;;;5039775;28;20056;-60
2022/12/11 05:12:08;;;;;;;47.47;17.17;;;1.10;99.90;;;;;;5073736;28;20127;-61
2022/12/11 05:14:34;;;;;;;51.10;18.02;;;1.20;99.90;;;;;;5074366;28;20036;-60
2022/12/11 05:16:59;;;;;;;50.38;17.95;;;1.20;99.90;;;;;;5072918;28;20207;-59
2022/12/11 05:19:26;;;;;;;45.50;18.05;;;1.10;99.90;;;;;;5073841;28;20135;-61
2022/12/11 05:21:51;;;;;;;49.85;17.98;;;1.10;99.90;;;;;;5055817;28;20072;-62
2022/12/11 05:24:17;;;;;;;51.15;18.75;;;1.00;99.90;;;;;;5072737;28;20068;-60
2022/12/11 05:26:42;;;;;;;46.92;18.15;;;1.00;99.90;;;;;;5055280;28;20084;-59
2022/12/11 05:29:08;;;;;;;47.28;17.58;;;1.10;99.90;;;;;;5073595;28;20066;-61
2022/12/11 05:31:34;;;;;;;54.35;17.65;;;1.00;99.90;;;;;;5055612;28;20105;-62
2022/12/11 05:34:00;;;;;;;47.80;16.88;;;1.10;99.90;;;;;;5072987;28;20063;-60
2022/12/11 05:36:27;;;;;;;51.25;18.13;;;1.00;99.90;;;;;;5072920;28;20076;-60
2022/12/11 05:38:53;;;;;;;48.58;16.40;;;0.90;99.90;;;;;;5073251;28;20072;-60
2022/12/11 05:41:21;;;;;;;49.63;17.85;;;1.10;99.90;;;;;;5055459;28;20447;-59
2022/12/11 05:43:47;;;;;;;50.95;17.83;;;1.00;99.90;;;;;;5073505;28;20068;-59
2022/12/11 05:46:18;;;;;;;46.28;17.58;;;1.00;99.90;;;;;;5054695;28;20084;-59
2022/12/11 05:48:46;;;;;;;47.38;17.30;;;1.10;99.90;;;;;;5072948;28;20036;-60
2022/12/11 05:51:14;;;;;;;49.80;17.63;;;0.90;99.90;;;;;;5072224;28;20048;-58
2022/12/11 05:53:41;;;;;;;49.45;16.50;;;1.00;99.90;;;;;;5055539;28;20060;-58
2022/12/11 05:56:10;;;;;;;50.78;18.13;;;1.00;99.90;;;;;;5072950;28;20036;-60
2022/12/11 05:58:36;;;;;;;50.30;16.58;;;0.90;99.90;;;;;;5072957;28;20032;-60
2022/12/11 06:01:07;;;;;;;54.45;17.02;;;0.90;99.90;;;;;;5072235;28;20063;-62
2022/12/11 06:03:32;;;;;;;50.00;17.10;;;1.00;99.90;;;;;;5088110;28;20055;-60
2022/12/11 06:06:01;;;;;;;53.53;18.08;;;1.00;99.90;;;;;;5070535;28;20052;-62
2022/12/11 06:08:27;;;;;;;52.85;18.27;;;1.10;99.90;;;;;;5062898;28;20037;-60
2022/12/11 06:10:53;;;;;;;51.10;18.02;;;1.10;99.90;;;;;;5068420;28;20048;-60
2022/12/11 06:13:19;;;;;;;50.20;17.65;;;1.00;99.90;;;;;;5087724;28;20032;-60
2022/12/11 06:15:44;;;;;;;57.53;19.20;;;0.90;99.90;;;;;;5078488;28;20037;-60
2022/12/11 06:18:10;;;;;;;56.35;17.38;;;1.00;99.90;;;;;;5072630;28;20043;-59
2022/12/11 06:20:36;;;;;;;49.97;18.40;;;0.90;99.90;;;;;;5065423;28;20130;-61
2022/12/11 06:23:01;;;;;;;51.90;19.25;;;1.00;99.90;;;;;;5087018;28;20035;-60
2022/12/11 06:25:28;;;;;;;47.22;18.27;;;1.10;99.90;;;;;;5078394;28;20043;-59
2022/12/11 06:27:54;;;;;;;55.40;18.35;;;1.10;99.90;;;;;;5071515;28;20037;-60
2022/12/11 06:30:20;;;;;;;46.55;17.52;;;1.10;99.90;;;;;;5045523;28;20097;-58
2022/12/11 06:32:45;;;;;;;49.38;16.50;;;1.00;99.90;;;;;;5084641;28;20036;-59
2022/12/11 06:35:11;;;;;;;52.30;19.33;;;1.00;99.90;;;;;;5086664;28;20053;-59
2022/12/11 06:37:37;;;;;;;58.50;29.88;;;1.20;99.90;;;;;;5079198;28;20373;-61
2022/12/11 06:40:04;;;;;;;53.25;19.80;;;1.00;99.90;;;;;;5042681;28;20063;-60
2022/12/11 06:42:30;;;;;;;52.80;17.55;;;1.10;99.90;;;;;;5078692;28;20579;-60
2022/12/11 06:44:58;;;;;;;50.65;18.52;;;1.10;99.90;;;;;;5063539;28;20064;-59
2022/12/11 06:47:30;;;;;;;47.00;17.77;;;1.00;99.90;;;;;;5054095;28;20396;-62
2022/12/11 06:49:56;;;;;;;50.58;17.85;;;1.10;99.90;;;;;;5057072;28;20040;-59
2022/12/11 06:52:23;;;;;;;51.40;18.90;;;1.10;99.90;;;;;;5077162;28;20028;-60
2022/12/11 06:54:49;;;;;;;61.35;18.38;;;1.20;99.90;;;;;;5083313;28;20028;-60
2022/12/11 06:57:16;;;;;;;51.20;18.13;;;1.00;99.90;;;;;;5074458;28;20055;-60
2022/12/11 06:59:41;;;;;;;47.78;17.65;;;1.10;99.90;;;;;;5059099;28;20045;-60
2022/12/11 07:02:14;;;;;;;49.50;18.52;;;1.10;99.90;;;;;;5054526;28;20096;-59
2022/12/11 07:04:41;;;;;;;54.03;20.27;;;1.00;99.90;;;;;;5058738;28;20405;-61
2022/12/11 07:07:07;;;;;;;54.33;17.92;;;1.10;99.90;;;;;;5056342;28;20028;-56
2022/12/11 07:09:33;;;;;;;49.58;17.52;;;1.10;99.90;;;;;;5084664;28;20040;-58
2022/12/11 07:11:58;;;;;;;50.25;19.33;;;1.10;99.90;;;;;;5079387;28;20343;-58
2022/12/11 07:14:24;;;;;;;52.65;19.10;;;1.00;99.90;;;;;;5061412;28;20040;-61
2022/12/11 07:16:49;;;;;;;52.22;18.80;;;1.10;99.90;;;;;;5079073;28;20028;-61
2022/12/11 07:19:15;;;;;;;47.13;18.25;;;1.10;99.90;;;;;;5061613;28;20056;-60
2022/12/11 07:21:41;;;;;;;63.50;20.48;;;1.10;99.90;;;;;;5054602;28;20810;-60
2022/12/11 07:24:07;;;;;;;49.58;19.20;;;1.00;99.90;;;;;;5072751;28;20451;-62
2022/12/11 07:26:33;;;;;;;48.75;18.48;;;1.30;99.90;;;;;;5080329;28;20377;-58
2022/12/11 07:28:59;;;;;;;49.78;18.17;;;1.10;99.90;;;;;;5088365;28;20050;-58
2022/12/11 07:31:27;;;;;;;47.05;16.58;;;1.00;99.90;;;;;;5083205;28;20032;-58
2022/12/11 07:33:58;;;;;;;59.70;18.85;;;1.10;99.90;;;;;;5086527;28;20048;-58
2022/12/11 07:36:24;;;;;;;55.38;18.45;;;1.10;99.90;;;;;;5069075;28;20120;-59
2022/12/11 07:38:50;;;;;;;61.72;18.60;;;1.10;99.90;;;;;;5054260;28;20119;-61
2022/12/11 07:41:16;;;;;;;50.50;18.48;;;1.20;99.90;;;;;;5058348;28;20044;-60
2022/12/11 07:43:43;;;;;;;60.58;19.55;;;1.20;99.90;;;;;;5071729;28;20124;-60
2022/12/11 07:46:21;;;;;;;57.95;19.08;;;1.10;99.90;;;;;;5085673;28;20518;-60
2022/12/11 07:48:47;;;;;;;53.78;17.55;;;1.10;99.90;;;;;;5083868;28;20064;-62
2022/12/11 07:51:25;;;;;;;51.25;17.45;;;1.20;99.90;;;;;;5091841;28;20071;-61
2022/12/11 07:53:52;;;;;;;54.22;19.48;;;1.30;99.90;;;;;;5080402;28;20033;-60
2022/12/11 07:56:18;;;;;;;53.70;18.65;;;1.30;99.90;;;;;;5067764;28;20037;-60
2022/12/11 07:58:44;;;;;;;52.72;18.92;;;1.20;99.90;;;;;;5071999;28;20055;-60
2022/12/11 08:01:15;;;;;;;56.28;20.25;;;1.10;99.90;;;;;;5079526;28;20125;-58
2022/12/11 08:03:41;;;;;;;51.60;18.50;;;1.20;99.90;;;;;;5072163;28;20080;-59
2022/12/11 08:06:07;;;;;;;52.92;18.40;;;1.10;99.90;;;;;;5053505;28;20445;-62
2022/12/11 08:08:32;;;;;;;51.25;18.35;;;1.30;99.90;;;;;;5071820;28;20063;-59
2022/12/11 08:11:02;;;;;;;53.40;18.65;;;1.20;99.90;;;;;;5074607;28;20036;-57
2022/12/11 08:13:28;;;;;;;50.28;18.13;;;1.30;99.90;;;;;;5071587;28;20519;-59
2022/12/11 08:15:54;;;;;;;50.95;18.85;;;1.20;99.90;;;;;;5074730;28;20028;-62
2022/12/11 08:18:19;;;;;;;51.25;18.27;;;1.30;99.90;;;;;;5072919;28;20483;-59
2022/12/11 08:20:45;;;;;;;52.80;19.77;;;1.20;99.90;;;;;;5074418;28;20047;-60
2022/12/11 08:23:11;;;;;;;53.05;19.25;;;1.20;99.90;;;;;;5083746;28;20028;-58
2022/12/11 08:25:36;;;;;;;49.38;17.90;;;1.10;99.90;;;;;;5088384;28;20473;-58
2022/12/11 08:28:02;;;;;;;50.35;18.90;;;1.20;99.90;;;;;;5080237;28;20399;-60
2022/12/11 08:30:28;;;;;;;48.22;18.67;;;1.30;99.90;;;;;;5061978;28;20044;-60
2022/12/11 08:32:54;;;;;;;51.10;19.10;;;1.20;99.90;;;;;;5083443;28;20032;-62
2022/12/11 08:35:19;;;;;;;53.92;18.13;;;1.30;99.90;;;;;;5076965;28;20138;-60
2022/12/11 08:37:45;;;;;;;49.10;18.30;;;1.30;99.90;;;;;;5074884;28;20170;-62
2022/12/11 08:40:11;;;;;;;54.55;20.33;;;1.30;99.90;;;;;;5084198;28;20032;-61
2022/12/11 08:42:37;;;;;;;48.95;18.65;;;1.30;99.90;;;;;;5090740;28;20102;-61
2022/12/11 08:45:03;;;;;;;47.97;17.77;;;1.30;99.90;;;;;;5075604;28;20033;-60
2022/12/11 08:47:29;;;;;;;49.80;18.02;;;1.30;99.90;;;;;;5079238;28;20059;-61
2022/12/11 08:49:55;;;;;;;51.45;18.42;;;1.30;99.90;;;;;;5062576;28;20068;-61
2022/12/11 08:52:21;;;;;;;45.25;16.88;;;1.40;99.90;;;;;;5083791;28;20033;-60
2022/12/11 08:54:47;;;;;;;47.50;17.88;;;1.40;99.90;;;;;;5075692;28;20032;-60
2022/12/11 08:57:12;;;;;;;44.20;18.00;;;1.40;99.90;;;;;;5077765;28;20044;-59
2022/12/11 08:59:38;;;;;;;48.55;18.58;;;1.40;99.90;;;;;;5074186;28;20100;-60
2022/12/11 09:02:03;;;;;;;52.60;19.10;;;1.30;99.90;;;;;;5078698;28;20032;-60
2022/12/11 09:04:29;;;;;;;49.92;19.35;;;1.40;99.90;;;;;;5074923;28;20456;-61
2022/12/11 09:06:55;;;;;;;49.83;19.80;;;1.40;99.90;;;;;;5074549;28;20330;-60
2022/12/11 09:09:21;;;;;;;51.22;18.20;;;1.50;99.90;;;;;;5057705;28;20098;-60
2022/12/11 09:11:46;;;;;;;50.30;19.45;;;1.50;99.90;;;;;;5075018;28;20052;-60
2022/12/11 09:14:12;;;;;;;44.75;20.38;;;1.50;99.90;;;;;;5075166;28;20040;-60
2022/12/11 09:16:39;;;;;;;47.40;17.58;;;1.50;99.90;;;;;;5074161;28;20043;-60
2022/12/11 09:19:06;;;;;;;46.58;18.50;;;1.50;99.90;;;;;;5074996;28;20040;-60
2022/12/11 09:21:31;;;;;;;48.45;19.38;;;1.50;99.90;;;;;;5075014;28;20040;-60
2022/12/11 09:23:59;;;;;;;53.88;19.13;;;1.40;99.90;;;;;;5078526;28;20041;-60
2022/12/11 09:26:26;;;;;;;51.60;19.30;;;1.40;99.90;;;;;;5084639;28;20125;-60
2022/12/11 09:28:52;;;;;;;47.85;19.02;;;1.40;99.90;;;;;;5089021;28;20047;-60
2022/12/11 09:31:24;;;;;;;46.90;18.20;;;1.40;99.90;;;;;;5074420;28;20032;-59
2022/12/11 09:33:50;;;;;;;52.65;19.33;;;1.40;99.90;;;;;;5074512;28;20044;-57
2022/12/11 09:36:17;;;;;;;64.25;21.50;;;1.40;99.90;;;;;;5074496;28;20032;-57
2022/12/11 09:38:43;;;;;;;58.33;20.55;;;1.50;99.90;;;;;;5074367;28;20055;-59
2022/12/11 09:41:32;;;;;;;47.00;18.42;;;1.40;99.90;;;;;;5088268;28;20115;-59
2022/12/11 09:44:16;;;;;;;56.72;19.25;;;1.50;99.90;;;;;;5018263;28;20190;-58
2022/12/11 09:46:43;;;;;;;53.13;18.77;;;1.40;99.90;;;;;;5073427;28;20128;-59
2022/12/11 09:49:22;;;;;;;50.47;18.45;;;1.50;99.90;;;;;;5073686;28;20036;-61
2022/12/11 09:52:04;;;;;;;54.15;19.15;;;1.50;99.90;;;;;;5056167;28;20052;-59
2022/12/11 09:54:31;;;;;;;51.75;20.15;;;1.40;99.90;;;;;;5071184;28;20060;-57
2022/12/11 09:57:19;;;;;;;51.17;19.40;;;1.50;99.90;;;;;;5072932;28;20125;-60
2022/12/11 10:00:09;;;;;;;52.05;19.40;;;1.40;99.90;;;;;;5055539;28;20128;-58
2022/12/11 10:02:47;;;;;;;46.45;18.33;;;1.50;99.90;;;;;;5073622;28;20452;-61
2022/12/11 10:05:44;;;;;;;49.33;18.77;;;1.50;99.90;;;;;;5073105;28;20040;-61
2022/12/11 10:08:37;;;;;;;52.58;19.80;;;1.40;99.90;;;;;;5072929;28;20055;-59
2022/12/11 10:11:27;;;;;;;46.15;18.60;;;1.50;99.90;;;;;;5062398;28;20465;-61
2022/12/11 10:14:06;;;;;;;43.50;17.65;;;1.50;99.90;;;;;;5072972;28;20109;-61
2022/12/11 10:16:46;;;;;;;48.28;17.83;;;1.50;99.90;;;;;;5073165;28;20051;-58
2022/12/11 10:19:26;;;;;;;45.22;17.88;;;1.50;99.90;;;;;;5056396;28;20044;-59
2022/12/11 10:21:52;;;;;;;50.05;19.67;;;1.50;99.90;;;;;;5072611;28;20150;-59
2022/12/11 10:24:38;;;;;;;46.95;18.38;;;1.50;99.90;;;;;;5072915;28;20043;-59
2022/12/11 10:27:20;;;;;;;44.05;17.25;;;1.40;99.90;;;;;;5071939;28;20121;-59
2022/12/11 10:29:58;;;;;;;44.22;17.27;;;1.50;99.90;;;;;;5072598;28;20072;-60
2022/12/11 10:32:32;;;;;;;55.85;29.08;;;1.60;99.90;;;;;;5072581;28;20033;-60
2022/12/11 10:35:03;;;;;;;42.53;18.00;;;1.60;99.90;;;;;;5072535;28;20383;-59
2022/12/11 10:37:29;;;;;;;43.70;18.23;;;1.60;99.90;;;;;;5066875;28;20090;-59
2022/12/11 10:39:54;;;;;;;51.90;20.80;;;1.60;99.90;;;;;;5072760;28;20052;-59
2022/12/11 10:42:21;;;;;;;47.38;19.83;;;1.60;99.90;;;;;;5073587;28;20111;-60
2022/12/11 10:44:59;;;;;;;44.58;18.15;;;1.60;99.90;;;;;;5084897;28;20036;-59
2022/12/11 10:47:25;;;;;;;44.55;18.60;;;1.70;99.90;;;;;;5073900;28;20059;-59
2022/12/11 10:49:57;;;;;;;45.58;18.58;;;1.60;99.90;;;;;;5072974;28;20528;-61
2022/12/11 10:52:32;;;;;;;44.83;19.75;;;1.60;99.90;;;;;;5079546;28;20088;-60
2022/12/11 10:55:19;;;;;;;45.55;18.17;;;1.70;99.90;;;;;;5066615;28;20407;-58
2022/12/11 10:57:58;;;;;;;46.55;18.40;;;1.70;99.90;;;;;;5070693;28;20052;-58
2022/12/11 11:00:32;;;;;;;44.85;18.65;;;1.70;99.90;;;;;;5071081;28;20052;-58
2022/12/11 11:02:58;;;;;;;44.65;19.45;;;1.70;99.90;;;;;;5074110;28;20052;-59
2022/12/11 11:05:34;;;;;;;44.60;18.85;;;1.70;99.90;;;;;;5072237;28;20128;-60
2022/12/11 11:08:11;;;;;;;50.05;19.38;;;1.80;99.90;;;;;;5072311;28;20045;-57
2022/12/11 11:10:37;;;;;;;45.03;20.58;;;1.80;99.90;;;;;;5084595;28;20041;-61
2022/12/11 11:13:03;;;;;;;51.40;19.50;;;1.80;99.90;;;;;;5084097;28;20466;-58
2022/12/11 11:15:30;;;;;;;43.22;19.58;;;1.70;99.90;;;;;;5078263;28;20061;-59
2022/12/11 11:18:20;;;;;;;44.15;18.38;;;1.80;99.90;;;;;;5063771;28;20037;-60
2022/12/11 11:20:47;;;;;;;44.42;18.92;;;1.80;99.90;;;;;;5068323;28;20041;-59
2022/12/11 11:23:15;;;;;;;45.63;27.20;;;1.90;99.90;;;;;;5078312;28;20039;-61
2022/12/11 11:25:53;;;;;;;44.15;18.30;;;1.90;99.90;;;;;;5085772;28;20095;-59
2022/12/11 11:28:35;;;;;;;38.40;17.85;;;1.80;99.90;;;;;;5081142;28;20460;-59
2022/12/11 11:31:10;;;;;;;41.35;20.27;;;1.90;99.90;;;;;;5091078;28;20058;-59
2022/12/11 11:33:43;;;;;;;;;;;1.80;99.90;;;;;;5089483;28;20032;-58
2022/12/11 11:36:25;;;;;;;38.28;18.73;;;1.80;99.90;;;;;;5059169;28;19935;-58
2022/12/11 11:39:18;;;;;;;39.55;19.27;;;1.80;99.90;;;;;;5084051;28;20333;-59
2022/12/11 11:42:13;;;;;;;34.03;18.60;;;1.80;99.90;;;;;;5084995;28;20047;-62
2022/12/11 11:44:59;;;;;;;45.45;23.23;;;1.70;99.90;;;;;;5087789;28;20383;-58
2022/12/11 11:47:30;;;;;;;37.53;18.83;;;1.70;99.90;;;;;;5079064;28;20044;-59
2022/12/11 11:50:16;;;;;;;36.80;18.30;;;1.60;99.90;;;;;;5078608;28;20036;-60
2022/12/11 11:52:47;;;;;;;36.90;18.73;;;1.60;99.90;;;;;;5088529;28;20414;-60
2022/12/11 11:55:17;;;;;;;32.92;17.13;;;1.70;99.90;;;;;;5071583;28;20039;-59
2022/12/11 11:58:24;;;;;;;35.70;19.63;;;1.70;99.90;;;;;;5047919;28;20051;-59
2022/12/11 12:00:55;;;;;;;35.33;18.00;;;1.70;99.90;;;;;;5080340;28;20046;-59
2022/12/11 12:03:24;;;;;;;35.17;18.90;;;1.60;99.90;;;;;;5076778;28;20131;-60
2022/12/11 12:06:25;;;;;;;37.03;17.48;;;1.60;99.90;;;;;;5077045;28;20044;-58
2022/12/11 12:09:17;;;;;;;41.10;18.50;;;1.60;99.90;;;;;;5082995;28;20062;-60
2022/12/11 12:12:13;;;;;;;34.03;17.45;;;1.60;99.90;;;;;;5075356;28;20040;-57
2022/12/11 12:15:12;;;;;;;37.63;19.60;;;1.60;99.90;;;;;;5075523;28;20044;-59
2022/12/11 12:17:54;;;;;;;35.30;17.95;;;1.60;99.90;;;;;;5067270;28;20112;-58
2022/12/11 12:20:29;;;;;;;38.65;20.05;;;1.60;99.90;;;;;;5078370;28;20033;-59
2022/12/11 12:23:02;;;;;;;38.85;19.83;;;1.60;99.90;;;;;;5060714;28;20041;-60
2022/12/11 12:25:37;;;;;;;33.90;18.38;;;1.60;99.90;;;;;;5073391;28;20036;-57
2022/12/11 12:28:11;;;;;;;40.60;19.83;;;1.60;99.90;;;;;;5073497;28;20055;-59
2022/12/11 12:31:03;;;;;;;35.53;18.60;;;1.60;99.90;;;;;;5078297;28;20072;-61
2022/12/11 12:33:34;;;;;;;39.25;20.25;;;1.50;99.90;;;;;;5074942;28;20051;-59
2022/12/11 12:36:10;;;;;;;34.25;18.45;;;1.60;99.90;;;;;;5056955;28;20158;-59
2022/12/11 12:39:05;;;;;;;32.97;17.08;;;1.60;99.90;;;;;;5058332;28;20044;-61
2022/12/11 12:41:49;;;;;;;;;;;1.50;99.90;;;;;;5057427;28;20044;-59
2022/12/11 12:44:19;;;;;;;33.22;16.48;;;1.40;99.90;;;;;;5070079;28;20002;-59
2022/12/11 12:47:08;;;;;;;29.63;15.43;;;1.40;99.90;;;;;;5077404;28;20036;-59
2022/12/11 12:49:49;;;;;;;32.40;16.10;;;1.50;99.90;;;;;;5073847;28;20146;-59
2022/12/11 12:52:24;;;;;;;29.83;14.95;;;1.50;99.90;;;;;;5056915;28;20387;-58
2022/12/11 12:55:13;;;;;;;29.80;15.48;;;1.50;99.90;;;;;;5074633;28;20111;-60
2022/12/11 12:57:57;;;;;;;28.73;14.95;;;1.60;99.90;;;;;;5059635;28;20443;-60
2022/12/11 13:00:34;;;;;;;32.08;17.13;;;1.60;99.90;;;;;;5077955;28;20399;-56
2022/12/11 13:03:13;;;;;;;27.20;15.02;;;1.70;99.90;;;;;;5074373;28;20130;-57
2022/12/11 13:05:42;;;;;;;30.75;16.58;;;1.60;99.90;;;;;;5072921;28;20126;-57